Time;durP1;ratioP1;P1;durP2;ratioP2;P2;SDS_P1;SDS_P2;PMS_P1;PMS_P2;Temp;Humidity;BMP_temperature;BMP_pressure;BME280_temperature;BME280_humidity;BME280_pressure;Samples;Min_cycle;Max_cycle;Signal;HPM_P1;HPM_P2
2021/04/24 00:02:22;;;;;;;3.50;1.67;;;21.00;36.10;;;;;;5091159;28;20032;-47
2021/04/24 00:04:48;;;;;;;1.35;1.20;;;21.00;36.10;;;;;;5091022;28;20055;-43
2021/04/24 00:07:17;;;;;;;5.45;1.52;;;21.00;36.30;;;;;;5091424;28;20034;-48
2021/04/24 00:09:42;;;;;;;3.60;1.70;;;21.00;36.10;;;;;;5091993;28;20480;-47
2021/04/24 00:12:08;;;;;;;4.68;1.80;;;21.00;36.10;;;;;;5093599;28;20024;-50
2021/04/24 00:14:34;;;;;;;3.50;1.80;;;21.00;36.00;;;;;;5093168;28;20162;-55
2021/04/24 00:17:00;;;;;;;4.50;1.58;;;21.00;36.00;;;;;;5093189;28;20024;-49
2021/04/24 00:19:26;;;;;;;5.70;2.05;;;21.00;35.90;;;;;;5093360;28;20036;-45
2021/04/24 00:21:51;;;;;;;2.65;1.30;;;21.00;36.00;;;;;;5092571;28;20419;-46
2021/04/24 00:24:17;;;;;;;3.67;1.45;;;20.90;35.90;;;;;;5093156;28;20028;-44
2021/04/24 00:26:42;;;;;;;3.42;1.55;;;21.00;36.00;;;;;;5092193;28;20473;-46
2021/04/24 00:29:08;;;;;;;2.95;1.27;;;21.00;36.00;;;;;;5093116;28;20440;-46
2021/04/24 00:31:34;;;;;;;2.58;1.40;;;20.90;36.10;;;;;;5092546;28;20373;-54
2021/04/24 00:33:59;;;;;;;3.55;2.13;;;20.90;35.90;;;;;;5092512;28;20031;-47
2021/04/24 00:36:25;;;;;;;3.28;1.52;;;20.90;35.90;;;;;;5093285;28;20024;-45
2021/04/24 00:38:50;;;;;;;2.60;1.30;;;20.90;35.80;;;;;;5092211;28;20466;-46
2021/04/24 00:41:16;;;;;;;2.67;1.40;;;20.90;35.80;;;;;;5093261;28;20065;-48
2021/04/24 00:43:42;;;;;;;2.67;1.20;;;20.90;35.80;;;;;;5092236;28;20107;-44
2021/04/24 00:46:12;;;;;;;3.63;1.50;;;20.90;35.70;;;;;;5092670;28;20062;-44
2021/04/24 00:48:38;;;;;;;2.78;1.30;;;20.90;35.80;;;;;;5092350;28;20035;-55
2021/04/24 00:51:06;;;;;;;5.05;2.08;;;20.90;35.80;;;;;;5092782;28;20032;-44
2021/04/24 00:53:32;;;;;;;2.90;1.52;;;20.90;35.90;;;;;;5092831;28;20481;-46
2021/04/24 00:55:58;;;;;;;3.60;1.80;;;20.90;35.90;;;;;;5091817;28;20506;-45
2021/04/24 00:58:25;;;;;;;6.07;1.60;;;20.90;35.80;;;;;;5092497;28;20032;-48
2021/04/24 01:00:54;;;;;;;4.50;1.77;;;20.90;35.90;;;;;;5092466;28;20020;-44
2021/04/24 01:03:23;;;;;;;1.98;1.20;;;20.90;35.80;;;;;;5088708;28;20059;-49
2021/04/24 01:05:49;;;;;;;4.85;1.60;;;20.90;35.80;;;;;;5092042;28;20028;-39
2021/04/24 01:08:17;;;;;;;5.20;2.17;;;20.90;35.90;;;;;;5092203;28;20534;-42
2021/04/24 01:10:44;;;;;;;3.25;1.85;;;20.90;35.80;;;;;;5091822;28;20067;-50
2021/04/24 01:13:10;;;;;;;3.35;1.60;;;20.90;35.70;;;;;;5071294;28;20104;-45
2021/04/24 01:15:36;;;;;;;4.05;1.75;;;20.90;35.80;;;;;;5072027;28;20027;-51
2021/04/24 01:18:06;;;;;;;3.30;1.90;;;20.90;35.70;;;;;;5088539;28;20020;-47
2021/04/24 01:20:33;;;;;;;5.05;1.88;;;20.90;35.80;;;;;;5092253;28;20072;-44
2021/04/24 01:22:59;;;;;;;3.33;1.65;;;20.90;35.80;;;;;;5091281;28;20028;-45
2021/04/24 01:25:27;;;;;;;2.42;1.60;;;20.80;35.80;;;;;;5092049;28;20098;-44
2021/04/24 01:27:57;;;;;;;3.28;1.50;;;20.90;35.80;;;;;;5091670;28;20392;-46
2021/04/24 01:30:30;;;;;;;6.25;1.55;;;20.80;35.60;;;;;;5092295;28;20061;-46
2021/04/24 01:32:57;;;;;;;5.10;1.67;;;20.80;36.30;;;;;;5090454;28;20467;-50
2021/04/24 01:35:26;;;;;;;3.05;1.50;;;20.90;35.70;;;;;;5091957;28;20055;-44
2021/04/24 01:37:52;;;;;;;2.65;1.63;;;20.80;35.70;;;;;;5091228;28;20028;-45
2021/04/24 01:40:18;;;;;;;4.40;1.50;;;20.80;35.70;;;;;;5091996;28;20035;-45
2021/04/24 01:42:45;;;;;;;5.15;1.80;;;20.80;35.70;;;;;;5091307;28;20377;-44
2021/04/24 01:45:12;;;;;;;2.47;1.65;;;20.80;35.80;;;;;;5091704;28;20035;-44
2021/04/24 01:47:40;;;;;;;2.88;1.58;;;20.80;35.80;;;;;;5091047;28;20024;-51
2021/04/24 01:50:07;;;;;;;3.47;1.77;;;20.80;35.60;;;;;;5091646;28;20025;-46
2021/04/24 01:52:35;;;;;;;4.47;2.13;;;20.80;35.80;;;;;;5091999;28;20093;-46
2021/04/24 01:55:03;;;;;;;3.80;1.95;;;20.80;35.80;;;;;;5090955;28;20085;-44
2021/04/24 01:57:31;;;;;;;4.07;1.55;;;20.80;35.70;;;;;;5091681;28;20366;-44
2021/04/24 01:59:57;;;;;;;3.50;1.48;;;20.80;35.70;;;;;;5090994;28;20566;-47
2021/04/24 02:02:26;;;;;;;4.43;1.98;;;20.80;35.50;;;;;;5091054;28;20032;-44
2021/04/24 02:04:53;;;;;;;4.05;1.60;;;20.80;35.70;;;;;;5091066;28;20051;-45
2021/04/24 02:07:18;;;;;;;3.25;2.05;;;20.80;35.70;;;;;;5091808;28;20024;-44
2021/04/24 02:09:44;;;;;;;3.78;1.90;;;20.80;35.70;;;;;;5090506;28;20038;-46
2021/04/24 02:12:12;;;;;;;3.83;1.67;;;20.80;35.70;;;;;;5091974;28;20028;-47
2021/04/24 02:15:06;;;;;;;2.63;1.48;;;20.80;35.70;;;;;;5091477;28;20043;-50
2021/04/24 02:17:32;;;;;;;3.78;1.70;;;20.80;35.70;;;;;;5087264;28;20032;-47
2021/04/24 02:19:57;;;;;;;3.72;1.80;;;20.80;35.60;;;;;;5090299;28;20454;-44
2021/04/24 02:22:24;;;;;;;3.03;1.75;;;20.80;35.70;;;;;;5091343;28;20071;-49
2021/04/24 02:24:53;;;;;;;4.85;1.65;;;20.80;35.50;;;;;;5090570;28;20391;-46
2021/04/24 02:27:19;;;;;;;2.58;1.80;;;20.80;35.70;;;;;;5091627;28;20032;-48
2021/04/24 02:29:46;;;;;;;4.00;1.98;;;20.80;35.60;;;;;;5090685;28;20393;-44
2021/04/24 02:32:13;;;;;;;4.05;1.80;;;20.80;35.60;;;;;;5091150;28;20380;-44
2021/04/24 02:34:40;;;;;;;3.70;1.75;;;20.80;35.50;;;;;;5090738;28;20127;-52
2021/04/24 02:37:07;;;;;;;3.15;2.03;;;20.80;35.60;;;;;;5091532;28;20036;-46
2021/04/24 02:39:35;;;;;;;4.35;1.77;;;20.80;35.60;;;;;;5091164;28;20092;-46
2021/04/24 02:42:03;;;;;;;2.90;1.92;;;20.70;35.50;;;;;;5090545;28;20102;-43
2021/04/24 02:44:29;;;;;;;4.72;1.95;;;20.70;35.60;;;;;;5091554;28;20036;-44
2021/04/24 02:46:57;;;;;;;4.13;1.95;;;20.80;35.70;;;;;;5094457;28;20024;-44
2021/04/24 02:49:22;;;;;;;5.03;1.80;;;20.70;36.00;;;;;;5094916;28;20055;-45
2021/04/24 02:51:51;;;;;;;3.83;1.75;;;20.70;36.30;;;;;;5094581;28;20020;-50
2021/04/24 02:54:16;;;;;;;3.88;1.90;;;20.70;36.50;;;;;;5094951;28;20043;-44
2021/04/24 02:56:42;;;;;;;4.53;2.35;;;20.70;36.40;;;;;;5094592;28;20028;-52
2021/04/24 02:59:08;;;;;;;3.78;1.98;;;20.70;36.30;;;;;;5095332;28;20024;-44
2021/04/24 03:01:33;;;;;;;3.25;1.60;;;20.70;36.30;;;;;;5094859;28;20024;-46
2021/04/24 03:03:59;;;;;;;5.88;2.20;;;20.70;36.30;;;;;;5092193;28;20156;-48
2021/04/24 03:06:25;;;;;;;4.32;1.67;;;20.70;36.40;;;;;;5091591;28;20378;-45
2021/04/24 03:08:53;;;;;;;3.78;2.13;;;20.70;36.30;;;;;;5084162;28;20047;-43
2021/04/24 03:11:19;;;;;;;2.47;1.60;;;20.70;36.30;;;;;;5091655;28;20024;-44
2021/04/24 03:13:44;;;;;;;3.72;1.67;;;20.70;36.40;;;;;;5088821;28;20126;-44
2021/04/24 03:16:10;;;;;;;3.75;1.88;;;20.70;36.40;;;;;;5087317;28;20047;-44
2021/04/24 03:18:40;;;;;;;2.78;1.80;;;20.70;36.50;;;;;;5088738;28;20093;-47
2021/04/24 03:21:08;;;;;;;3.45;1.80;;;20.70;36.40;;;;;;5087294;28;20024;-51
2021/04/24 03:23:34;;;;;;;3.42;1.88;;;20.70;36.40;;;;;;5087666;28;20044;-46
2021/04/24 03:25:59;;;;;;;2.95;1.50;;;20.70;36.40;;;;;;5088079;28;20079;-47
2021/04/24 03:28:25;;;;;;;5.90;1.80;;;20.70;36.60;;;;;;5091506;28;20048;-45
2021/04/24 03:30:54;;;;;;;3.22;1.70;;;20.70;36.30;;;;;;5086916;28;20025;-46
2021/04/24 03:33:22;;;;;;;4.72;2.00;;;20.70;35.50;;;;;;5092543;28;20040;-45
2021/04/24 03:35:47;;;;;;;4.13;1.73;;;20.80;35.30;;;;;;5087917;28;20024;-46
2021/04/24 03:38:13;;;;;;;2.92;2.05;;;20.80;35.60;;;;;;5088312;28;20054;-49
2021/04/24 03:40:39;;;;;;;3.92;1.60;;;20.70;35.50;;;;;;5088482;28;20039;-44
2021/04/24 03:43:13;;;;;;;3.20;1.75;;;20.70;35.80;;;;;;5088254;28;20039;-47
2021/04/24 03:45:39;;;;;;;3.72;1.90;;;20.70;35.70;;;;;;5089161;28;20024;-45
2021/04/24 03:48:05;;;;;;;4.85;2.70;;;20.70;35.70;;;;;;5086723;28;20474;-46
2021/04/24 03:50:31;;;;;;;3.95;2.03;;;20.70;35.60;;;;;;5085517;28;20031;-41
2021/04/24 03:52:57;;;;;;;2.67;1.92;;;20.80;35.80;;;;;;5088548;28;20024;-47
2021/04/24 03:55:32;;;;;;;2.60;1.92;;;20.70;35.50;;;;;;5089604;28;20866;-46
2021/04/24 03:58:00;;;;;;;2.95;1.90;;;20.70;35.70;;;;;;5087651;28;20021;-47
2021/04/24 04:00:35;;;;;;;2.67;1.67;;;20.70;35.70;;;;;;5090133;28;20071;-39
2021/04/24 04:03:04;;;;;;;3.15;2.00;;;20.70;35.50;;;;;;5085236;28;20067;-45
2021/04/24 04:05:31;;;;;;;4.68;2.15;;;20.70;35.50;;;;;;5089177;28;20035;-44
2021/04/24 04:08:01;;;;;;;5.38;2.03;;;20.70;35.60;;;;;;5084467;28;20492;-41
2021/04/24 04:10:27;;;;;;;4.18;2.10;;;20.70;35.60;;;;;;5089232;28;20040;-47
2021/04/24 04:12:54;;;;;;;3.30;2.10;;;20.70;35.40;;;;;;5092872;28;20414;-43
2021/04/24 04:15:22;;;;;;;4.40;1.92;;;20.70;35.50;;;;;;5093470;28;20380;-45
2021/04/24 04:18:02;;;;;;;3.58;1.88;;;20.70;35.50;;;;;;5092746;28;20035;-48
2021/04/24 04:20:28;;;;;;;5.60;2.13;;;20.70;35.40;;;;;;5093313;28;20035;-48
2021/04/24 04:22:53;;;;;;;2.60;1.73;;;20.70;35.40;;;;;;5092476;28;20028;-46
2021/04/24 04:25:19;;;;;;;3.83;2.20;;;20.70;35.50;;;;;;5092490;28;20031;-45
2021/04/24 04:27:45;;;;;;;3.75;1.90;;;20.70;35.40;;;;;;5091785;28;20024;-50
2021/04/24 04:30:13;;;;;;;6.18;2.10;;;20.70;35.40;;;;;;5093326;28;20109;-45
2021/04/24 04:32:40;;;;;;;5.53;2.60;;;20.70;35.30;;;;;;5093041;28;20043;-45
2021/04/24 04:35:08;;;;;;;4.75;1.85;;;20.70;35.50;;;;;;5092913;28;20032;-49
2021/04/24 04:37:33;;;;;;;3.75;1.90;;;20.70;35.50;;;;;;5092610;28;20405;-52
2021/04/24 04:39:59;;;;;;;4.97;2.22;;;20.70;35.50;;;;;;5091060;28;20028;-47
2021/04/24 04:42:26;;;;;;;3.85;2.03;;;20.70;35.50;;;;;;5093076;28;20503;-49
2021/04/24 04:44:52;;;;;;;3.30;1.65;;;20.70;35.50;;;;;;5091742;28;20042;-47
2021/04/24 04:47:17;;;;;;;6.60;2.10;;;20.70;35.50;;;;;;5092934;28;20099;-46
2021/04/24 04:49:43;;;;;;;3.97;2.15;;;20.70;35.40;;;;;;5092875;28;20085;-53
2021/04/24 04:52:08;;;;;;;5.45;2.15;;;20.70;35.50;;;;;;5092295;28;20035;-45
2021/04/24 04:54:34;;;;;;;5.15;1.98;;;20.70;35.60;;;;;;5092887;28;20040;-44
2021/04/24 04:57:00;;;;;;;3.85;2.28;;;20.70;35.50;;;;;;5091712;28;20043;-48
2021/04/24 04:59:28;;;;;;;3.85;2.17;;;20.70;35.50;;;;;;5092657;28;20501;-46
2021/04/24 05:01:57;;;;;;;3.92;2.28;;;20.70;35.50;;;;;;5090825;28;20426;-48
2021/04/24 05:04:23;;;;;;;4.28;2.17;;;20.70;35.70;;;;;;5092055;28;20485;-50
2021/04/24 05:06:49;;;;;;;4.80;2.10;;;20.70;35.70;;;;;;5082845;28;20118;-45
2021/04/24 05:09:18;;;;;;;4.20;2.10;;;20.70;35.60;;;;;;5092793;28;20039;-44
2021/04/24 05:11:44;;;;;;;5.38;2.95;;;20.70;35.60;;;;;;5092021;28;20473;-53
2021/04/24 05:14:09;;;;;;;4.57;2.40;;;20.70;35.60;;;;;;5092465;28;20036;-44
2021/04/24 05:16:35;;;;;;;7.32;2.05;;;20.70;35.40;;;;;;5092157;28;20582;-45
2021/04/24 05:19:01;;;;;;;4.32;2.67;;;20.70;35.50;;;;;;5091060;28;20381;-44
2021/04/24 05:21:27;;;;;;;5.05;2.70;;;20.70;35.40;;;;;;5092240;28;20081;-47
2021/04/24 05:23:53;;;;;;;4.55;2.40;;;20.70;35.50;;;;;;5091045;28;20495;-44
2021/04/24 05:26:19;;;;;;;6.13;2.63;;;20.70;35.50;;;;;;5092484;28;20031;-46
2021/04/24 05:28:45;;;;;;;5.20;2.53;;;20.70;35.70;;;;;;5091154;28;20098;-51
2021/04/24 05:31:10;;;;;;;9.23;3.15;;;20.80;36.10;;;;;;5091537;28;20019;-49
2021/04/24 05:33:36;;;;;;;11.02;3.10;;;20.80;36.80;;;;;;5091924;28;20119;-50
2021/04/24 05:36:07;;;;;;;9.75;2.92;;;20.80;37.00;;;;;;5091088;28;20028;-48
2021/04/24 05:38:33;;;;;;;10.15;3.75;;;20.80;37.20;;;;;;5090586;28;20024;-51
2021/04/24 05:40:59;;;;;;;14.25;3.38;;;20.80;37.50;;;;;;5091113;28;20039;-48
2021/04/24 05:43:25;;;;;;;11.43;2.80;;;20.90;37.90;;;;;;5091985;28;20038;-46
2021/04/24 05:45:51;;;;;;;9.07;3.05;;;20.90;37.70;;;;;;5088967;28;20024;-53
2021/04/24 05:48:16;;;;;;;8.48;3.33;;;20.90;37.00;;;;;;5090620;28;20059;-41
2021/04/24 05:50:43;;;;;;;12.75;3.15;;;20.80;35.60;;;;;;5090913;28;20038;-49
2021/04/24 05:53:09;;;;;;;9.85;4.72;;;20.50;33.80;;;;;;5090067;28;20582;-44
2021/04/24 05:55:36;;;;;;;10.43;3.47;;;20.40;34.20;;;;;;5082662;28;20047;-48
2021/04/24 05:58:03;;;;;;;8.88;3.67;;;20.40;34.80;;;;;;5090937;28;20047;-48
2021/04/24 06:00:29;;;;;;;14.88;4.82;;;20.50;34.40;;;;;;5091151;28;20028;-46
2021/04/24 06:02:55;;;;;;;10.02;5.07;;;20.30;33.00;;;;;;5090560;28;20036;-44
2021/04/24 06:05:22;;;;;;;12.63;5.15;;;20.30;32.00;;;;;;5091323;28;20032;-45
2021/04/24 06:07:48;;;;;;;11.43;5.47;;;20.20;31.70;;;;;;5089756;28;20031;-51
2021/04/24 06:10:15;;;;;;;7.78;4.32;;;20.10;31.50;;;;;;5092024;28;20052;-42
2021/04/24 06:12:43;;;;;;;10.27;4.55;;;20.00;31.50;;;;;;5090728;28;20031;-43
2021/04/24 06:15:11;;;;;;;7.45;4.57;;;19.90;31.70;;;;;;5090357;28;20047;-47
2021/04/24 06:17:41;;;;;;;9.40;4.53;;;19.90;31.50;;;;;;5091150;28;20162;-41
2021/04/24 06:20:09;;;;;;;8.50;4.55;;;19.60;31.60;;;;;;5094440;28;20115;-44
2021/04/24 06:22:36;;;;;;;9.63;4.43;;;19.40;32.40;;;;;;5097673;28;20028;-44
2021/04/24 06:25:02;;;;;;;13.85;3.90;;;19.80;32.20;;;;;;5097453;28;20028;-49
2021/04/24 06:27:28;;;;;;;9.95;3.70;;;20.10;32.50;;;;;;5097568;28;20064;-43
2021/04/24 06:29:54;;;;;;;10.13;4.60;;;20.20;32.00;;;;;;5097583;28;20052;-41
2021/04/24 06:32:20;;;;;;;11.13;4.20;;;20.30;31.50;;;;;;5097932;28;20020;-44
2021/04/24 06:34:47;;;;;;;10.30;4.45;;;20.40;31.40;;;;;;5097141;28;20041;-51
2021/04/24 06:37:13;;;;;;;11.73;3.92;;;20.50;31.20;;;;;;5097412;28;20023;-43
2021/04/24 06:39:39;;;;;;;10.02;4.20;;;20.50;31.20;;;;;;5096357;28;20510;-45
2021/04/24 06:42:05;;;;;;;9.77;4.32;;;20.50;31.10;;;;;;5097376;28;20103;-45
2021/04/24 06:44:31;;;;;;;10.45;4.03;;;20.60;31.10;;;;;;5098039;28;20039;-43
2021/04/24 06:46:56;;;;;;;8.15;3.78;;;20.60;31.00;;;;;;5096733;28;20033;-43
2021/04/24 06:49:24;;;;;;;8.65;4.07;;;20.60;31.10;;;;;;5098718;28;20027;-65
2021/04/24 06:51:50;;;;;;;8.65;3.90;;;20.60;31.30;;;;;;5098473;28;20036;-66
2021/04/24 06:54:16;;;;;;;8.73;3.60;;;20.70;31.30;;;;;;5097887;28;20058;-62
2021/04/24 06:56:42;;;;;;;8.73;3.92;;;20.80;32.10;;;;;;5097907;28;20028;-66
2021/04/24 06:59:08;;;;;;;6.15;4.05;;;20.90;32.50;;;;;;5096754;28;20461;-65
2021/04/24 07:01:34;;;;;;;5.93;3.25;;;21.00;32.70;;;;;;5097794;28;20028;-64
2021/04/24 07:04:00;;;;;;;7.85;2.97;;;21.00;32.80;;;;;;5096810;28;20052;-62
2021/04/24 07:06:26;;;;;;;8.35;3.88;;;21.10;32.90;;;;;;5097845;28;20040;-67
2021/04/24 07:08:53;;;;;;;8.18;2.88;;;21.10;33.10;;;;;;5095876;28;20024;-57
2021/04/24 07:11:18;;;;;;;9.48;2.78;;;21.10;33.30;;;;;;5097194;28;20020;-63
2021/04/24 07:13:45;;;;;;;8.27;2.88;;;21.10;33.80;;;;;;5097541;28;20044;-63
2021/04/24 07:16:11;;;;;;;7.18;2.83;;;21.20;33.70;;;;;;5096650;28;20106;-67
2021/04/24 07:18:39;;;;;;;6.50;2.70;;;21.20;33.80;;;;;;5097779;28;20457;-68
2021/04/24 07:21:06;;;;;;;6.43;2.47;;;21.20;34.00;;;;;;5096566;28;20058;-70
2021/04/24 07:23:34;;;;;;;6.60;2.45;;;21.30;34.10;;;;;;5097550;28;20082;-71
2021/04/24 07:26:00;;;;;;;10.43;3.00;;;21.30;34.20;;;;;;5096195;28;20031;-65
2021/04/24 07:28:27;;;;;;;7.75;3.05;;;21.30;34.30;;;;;;5097105;28;20036;-67
2021/04/24 07:30:53;;;;;;;12.27;3.78;;;21.30;34.30;;;;;;5094296;28;20055;-68
2021/04/24 07:33:20;;;;;;;9.38;3.55;;;21.40;34.50;;;;;;5092937;28;20082;-64
2021/04/24 07:35:46;;;;;;;9.10;2.88;;;21.50;34.50;;;;;;5094269;28;20024;-67
2021/04/24 07:38:12;;;;;;;13.98;2.80;;;21.50;34.60;;;;;;5093856;28;20143;-66
2021/04/24 07:40:38;;;;;;;6.15;2.63;;;21.50;34.60;;;;;;5092885;28;20045;-64
2021/04/24 07:43:04;;;;;;;7.40;2.42;;;21.50;34.70;;;;;;5093560;28;20034;-65
2021/04/24 07:45:30;;;;;;;9.00;2.47;;;21.60;35.10;;;;;;5092196;28;20422;-67
2021/04/24 07:47:56;;;;;;;4.55;1.90;;;21.50;35.50;;;;;;5093409;28;20028;-65
2021/04/24 07:50:22;;;;;;;9.20;2.70;;;21.50;35.30;;;;;;5094218;28;20020;-67
2021/04/24 07:52:49;;;;;;;9.85;4.68;;;21.50;34.30;;;;;;5091955;28;20031;-65
2021/04/24 07:55:16;;;;;;;13.07;4.63;;;21.10;30.70;;;;;;5093031;28;20024;-64
2021/04/24 07:57:43;;;;;;;12.90;4.20;;;20.50;31.10;;;;;;5093934;28;20028;-57
2021/04/24 08:00:10;;;;;;;8.48;4.50;;;20.50;32.00;;;;;;5093266;28;20832;-61
2021/04/24 08:02:36;;;;;;;13.75;4.60;;;20.80;32.50;;;;;;5094028;28;20032;-66
2021/04/24 08:05:04;;;;;;;8.27;3.53;;;21.00;32.30;;;;;;5091622;28;20036;-69
2021/04/24 08:07:29;;;;;;;7.53;4.18;;;21.10;32.00;;;;;;5093599;28;20111;-69
2021/04/24 08:09:55;;;;;;;9.00;4.18;;;20.90;30.70;;;;;;5092672;28;20414;-67
2021/04/24 08:12:21;;;;;;;7.90;4.75;;;20.80;30.50;;;;;;5093564;28;20481;-69
2021/04/24 08:14:47;;;;;;;11.77;4.75;;;20.60;30.00;;;;;;5093437;28;20047;-65
2021/04/24 08:17:15;;;;;;;9.43;4.38;;;20.50;30.00;;;;;;5092520;28;20601;-69
2021/04/24 08:19:42;;;;;;;8.50;3.83;;;20.40;30.50;;;;;;5093406;28;20047;-68
2021/04/24 08:22:09;;;;;;;6.40;3.60;;;20.50;31.40;;;;;;5093003;28;20059;-69
2021/04/24 08:24:35;;;;;;;8.02;3.90;;;20.70;31.70;;;;;;5093712;28;20066;-67
2021/04/24 08:27:01;;;;;;;4.78;2.97;;;20.90;32.30;;;;;;5092381;28;20032;-69
2021/04/24 08:29:26;;;;;;;7.78;4.13;;;21.00;31.70;;;;;;5092153;28;20469;-67
2021/04/24 08:31:53;;;;;;;6.28;2.92;;;21.10;31.60;;;;;;5093141;28;20381;-63
2021/04/24 08:34:25;;;;;;;9.10;3.03;;;21.10;31.50;;;;;;5092828;28;20031;-64
2021/04/24 08:36:51;;;;;;;12.90;3.50;;;21.10;31.50;;;;;;5093260;28;20380;-65
2021/04/24 08:39:17;;;;;;;7.68;2.78;;;21.10;32.30;;;;;;5092440;28;20032;-64
2021/04/24 08:41:43;;;;;;;7.57;2.78;;;21.10;33.60;;;;;;5092804;28;20069;-61
2021/04/24 08:44:12;;;;;;;6.70;2.80;;;21.20;34.00;;;;;;5091877;28;20032;-63
2021/04/24 08:46:38;;;;;;;6.97;2.90;;;21.10;32.90;;;;;;5091636;28;20028;-64
2021/04/24 08:49:04;;;;;;;8.38;2.60;;;21.00;33.30;;;;;;5091978;28;20073;-62
2021/04/24 08:51:29;;;;;;;7.97;3.45;;;21.00;34.00;;;;;;5092352;28;20036;-66
2021/04/24 08:53:59;;;;;;;8.00;3.42;;;20.90;35.50;;;;;;5091444;28;20032;-63
2021/04/24 08:56:25;;;;;;;9.07;4.70;;;20.90;34.30;;;;;;5092397;28;20053;-67
2021/04/24 08:58:52;;;;;;;12.23;4.70;;;20.80;34.00;;;;;;5092763;28;20032;-67
2021/04/24 09:01:19;;;;;;;12.02;4.53;;;20.80;34.00;;;;;;5092073;28;20028;-69
2021/04/24 09:03:45;;;;;;;13.02;3.92;;;20.80;33.90;;;;;;5092736;28;20036;-72
2021/04/24 09:06:10;;;;;;;10.00;3.20;;;20.90;34.10;;;;;;5091291;28;20520;-69
2021/04/24 09:08:36;;;;;;;9.02;3.72;;;20.90;33.80;;;;;;5087027;28;20024;-71
2021/04/24 09:11:06;;;;;;;7.65;3.15;;;20.90;33.70;;;;;;5088424;28;20020;-66
2021/04/24 09:13:32;;;;;;;14.05;4.90;;;20.90;34.40;;;;;;5087287;28;20046;-70
2021/04/24 09:15:59;;;;;;;10.30;2.95;;;20.90;35.50;;;;;;5091448;28;20085;-67
2021/04/24 09:18:27;;;;;;;9.57;3.28;;;20.90;35.20;;;;;;5086857;28;20354;-70
2021/04/24 09:20:55;;;;;;;11.95;3.00;;;20.90;34.90;;;;;;5092265;28;20028;-65
2021/04/24 09:23:23;;;;;;;7.85;3.03;;;20.90;35.10;;;;;;5087639;28;20111;-70
2021/04/24 09:26:01;;;;;;;6.03;2.85;;;20.90;34.70;;;;;;5092351;28;20039;-71
2021/04/24 09:28:35;;;;;;;7.22;2.28;;;20.90;35.00;;;;;;5091024;28;20500;-71
2021/04/24 09:31:15;;;;;;;6.82;2.70;;;20.90;35.10;;;;;;5091371;28;20035;-70
2021/04/24 09:33:43;;;;;;;9.60;3.03;;;20.90;35.00;;;;;;5091512;28;20496;-46
2021/04/24 09:36:10;;;;;;;12.55;3.13;;;20.90;35.90;;;;;;5091851;28;20032;-46
2021/04/24 09:38:38;;;;;;;8.30;2.72;;;20.90;36.40;;;;;;5092404;28;20377;-46
2021/04/24 09:41:18;;;;;;;8.60;2.17;;;21.00;37.30;;;;;;5091246;28;20049;-48
2021/04/24 09:44:06;;;;;;;5.88;2.30;;;21.00;38.20;;;;;;5091916;28;20047;-46
2021/04/24 09:46:50;;;;;;;5.40;2.40;;;21.10;38.30;;;;;;5085835;28;20541;-54
2021/04/24 09:49:25;;;;;;;5.93;2.20;;;21.10;38.40;;;;;;5090098;28;20080;-47
2021/04/24 09:52:02;;;;;;;8.10;2.47;;;21.20;38.80;;;;;;5091693;28;20032;-48
2021/04/24 09:54:37;;;;;;;5.00;2.63;;;21.20;37.10;;;;;;5090884;28;20035;-48
2021/04/24 09:57:10;;;;;;;7.07;2.42;;;21.20;36.40;;;;;;5090544;28;20478;-48
2021/04/24 09:59:53;;;;;;;8.70;2.30;;;21.20;36.40;;;;;;5091289;28;20043;-45
2021/04/24 10:02:30;;;;;;;;;;;21.30;36.90;;;;;;5091429;28;20082;-44
2021/04/24 10:05:14;;;;;;;5.05;2.15;;;21.30;39.10;;;;;;5088991;28;20014;-53
2021/04/24 10:07:50;;;;;;;6.25;1.67;;;21.30;38.60;;;;;;5091332;28;20028;-45
2021/04/24 10:10:37;;;;;;;8.80;2.42;;;21.30;37.90;;;;;;5090658;28;20516;-44
2021/04/24 10:13:07;;;;;;;6.28;2.22;;;21.40;38.50;;;;;;5090689;28;20028;-49
2021/04/24 10:15:38;;;;;;;4.75;1.95;;;21.40;40.30;;;;;;5091039;28;20020;-45
2021/04/24 10:18:06;;;;;;;7.38;2.55;;;21.40;39.20;;;;;;5090005;28;20024;-47
2021/04/24 10:20:33;;;;;;;5.78;2.05;;;21.40;38.60;;;;;;5090546;28;20020;-49
2021/04/24 10:23:01;;;;;;;6.20;2.65;;;21.40;39.10;;;;;;5090077;28;20080;-51
2021/04/24 10:25:28;;;;;;;5.97;2.20;;;21.50;39.10;;;;;;5091446;28;20092;-46
2021/04/24 10:27:54;;;;;;;8.88;2.30;;;21.40;39.50;;;;;;5090714;28;20092;-49
2021/04/24 10:30:20;;;;;;;9.45;2.30;;;21.50;39.20;;;;;;5090597;28;20024;-45
2021/04/24 10:32:45;;;;;;;6.18;2.10;;;21.50;39.50;;;;;;5091168;28;20040;-53
2021/04/24 10:35:13;;;;;;;5.38;2.28;;;21.50;40.10;;;;;;5089925;28;20043;-46
2021/04/24 10:37:39;;;;;;;10.35;2.50;;;21.40;39.90;;;;;;5091659;28;20036;-44
2021/04/24 10:40:09;;;;;;;10.02;2.25;;;21.40;40.20;;;;;;5090151;28;20036;-50
2021/04/24 10:42:36;;;;;;;9.88;3.15;;;21.40;39.50;;;;;;5091151;28;20452;-48
2021/04/24 10:45:06;;;;;;;8.52;4.00;;;21.40;38.20;;;;;;5090352;28;20035;-51
2021/04/24 10:47:41;;;;;;;10.10;4.65;;;21.20;33.00;;;;;;5091061;28;20032;-49
2021/04/24 10:50:25;;;;;;;11.18;4.82;;;21.10;31.00;;;;;;5086728;28;20107;-43
2021/04/24 10:52:54;;;;;;;12.85;5.32;;;20.90;30.10;;;;;;5087881;28;20035;-45
2021/04/24 10:55:23;;;;;;;16.42;4.70;;;20.80;30.10;;;;;;5091381;28;20093;-45
2021/04/24 10:57:59;;;;;;;10.15;3.92;;;20.90;31.70;;;;;;5091489;28;20043;-47
2021/04/24 11:00:28;;;;;;;7.13;3.05;;;20.90;33.00;;;;;;5090907;28;20039;-49
2021/04/24 11:02:56;;;;;;;11.05;3.33;;;21.00;35.20;;;;;;5090902;28;20043;-43
2021/04/24 11:05:27;;;;;;;9.30;3.53;;;21.10;34.80;;;;;;5089512;28;20131;-51
2021/04/24 11:08:12;;;;;;;8.20;2.85;;;21.20;34.60;;;;;;5095166;28;20132;-45
2021/04/24 11:10:47;;;;;;;5.63;2.38;;;21.30;34.80;;;;;;5094831;28;20047;-48
2021/04/24 11:13:17;;;;;;;5.53;3.03;;;21.40;34.60;;;;;;5086657;28;20025;-44
2021/04/24 11:15:47;;;;;;;2.92;2.17;;;21.30;34.50;;;;;;5093257;28;20039;-43
2021/04/24 11:18:13;;;;;;;8.05;3.13;;;21.40;35.60;;;;;;5092699;28;20020;-39
2021/04/24 11:20:54;;;;;;;6.75;2.63;;;21.40;36.00;;;;;;5094302;28;20031;-45
2021/04/24 11:23:41;;;;;;;7.40;2.43;;;21.50;36.70;;;;;;5093682;28;20028;-43
2021/04/24 11:26:24;;;;;;;6.47;2.30;;;21.60;36.60;;;;;;5093449;28;20032;-45
2021/04/24 11:29:15;;;;;;;5.95;2.08;;;21.50;36.70;;;;;;5093924;28;20039;-46
2021/04/24 11:32:00;;;;;;;5.13;2.33;;;21.60;36.80;;;;;;5091894;28;20056;-44
2021/04/24 11:34:36;;;;;;;11.43;5.03;;;21.60;36.10;;;;;;5070789;28;20032;-44
2021/04/24 11:37:31;;;;;;;16.15;5.15;;;21.40;30.60;;;;;;5092248;28;20522;-48
2021/04/24 11:40:28;;;;;;;14.73;5.68;;;21.20;29.90;;;;;;5093885;28;20035;-52
2021/04/24 11:43:02;;;;;;;10.50;3.90;;;21.00;29.10;;;;;;5094099;28;20081;-39
2021/04/24 11:45:53;;;;;;;9.60;4.65;;;21.20;30.40;;;;;;5094310;28;20044;-45
2021/04/24 11:48:50;;;;;;;6.82;4.47;;;21.10;28.90;;;;;;5091686;28;20028;-49
2021/04/24 11:51:34;;;;;;;7.57;4.35;;;21.10;28.90;;;;;;5087316;28;20028;-47
2021/04/24 11:54:00;;;;;;;8.15;4.10;;;21.00;28.60;;;;;;5085651;28;20115;-51
2021/04/24 11:56:26;;;;;;;6.90;3.67;;;21.10;29.90;;;;;;5092167;28;20107;-50
2021/04/24 11:58:52;;;;;;;5.78;3.85;;;21.10;31.10;;;;;;5089275;28;20400;-45
2021/04/24 12:01:22;;;;;;;7.50;3.53;;;21.20;29.80;;;;;;5086285;28;20032;-52
2021/04/24 12:03:49;;;;;;;7.82;3.08;;;21.20;29.80;;;;;;5085700;28;20152;-44
2021/04/24 12:06:31;;;;;;;11.15;3.70;;;21.20;30.00;;;;;;5092720;28;20065;-45
2021/04/24 12:09:13;;;;;;;9.15;3.78;;;21.20;29.40;;;;;;5093553;28;20023;-46
2021/04/24 12:11:41;;;;;;;7.72;3.88;;;21.20;29.20;;;;;;5093252;28;20110;-51
2021/04/24 12:14:08;;;;;;;11.30;3.42;;;21.20;29.20;;;;;;5091479;28;20048;-45
2021/04/24 12:16:47;;;;;;;5.40;3.08;;;21.30;29.20;;;;;;5093261;28;20032;-43
2021/04/24 12:19:36;;;;;;;5.97;3.80;;;21.30;29.60;;;;;;5092520;28;20028;-44
2021/04/24 12:22:06;;;;;;;6.22;3.28;;;21.40;29.60;;;;;;5092709;28;20073;-51
2021/04/24 12:24:34;;;;;;;5.28;3.58;;;21.40;29.50;;;;;;5090840;28;20081;-45
2021/04/24 12:27:22;;;;;;;5.45;3.65;;;21.40;29.30;;;;;;5092665;28;20059;-51
2021/04/24 12:29:50;;;;;;;9.02;3.08;;;21.30;29.50;;;;;;5087370;28;20032;-44
2021/04/24 12:32:17;;;;;;;4.13;2.53;;;21.20;30.00;;;;;;5092271;28;20030;-45
2021/04/24 12:34:43;;;;;;;6.70;3.00;;;21.30;30.50;;;;;;5085826;28;20040;-48
2021/04/24 12:37:12;;;;;;;5.30;3.83;;;21.30;30.50;;;;;;5092128;28;20115;-46
2021/04/24 12:39:39;;;;;;;4.38;2.80;;;21.30;29.60;;;;;;5093088;28;20024;-44
2021/04/24 12:42:07;;;;;;;6.82;3.70;;;21.40;30.40;;;;;;5091810;28;20067;-47
2021/04/24 12:44:33;;;;;;;6.32;3.20;;;21.50;30.00;;;;;;5093344;28;20469;-47
2021/04/24 12:47:00;;;;;;;7.65;4.07;;;21.40;30.20;;;;;;5092791;28;20031;-52
2021/04/24 12:49:27;;;;;;;8.80;4.63;;;21.40;29.80;;;;;;5092334;28;20028;-48
2021/04/24 12:52:07;;;;;;;7.57;4.03;;;21.40;28.30;;;;;;5092713;28;20020;-48
2021/04/24 12:54:33;;;;;;;6.15;2.65;;;21.40;28.00;;;;;;5091929;28;20046;-45